Strona główna
METAR-TAF:

METAR-TAF

Lotnisko :

Łódź, Polska

Port lotniczy Łódź-Lublinek

Szerokość geograficzna: 51-43-19N, Długość geograficzna: 019-23-53E, wysokość: 184 m

Aktualna obserwacja pogody

Raport powstał 30 minut temu, godzina 12:30 UTC
Wiatr 5 kt z kierunków zmiennych
Temperatura 7°C
Wilgotność 53%
Ciśnienie 1025 hPa
Widzialność 10 km lub więcej
Mało chmury na wysokości 3700 ft

METAR: EPLL 261230Z VRB05KT 9999 FEW037 07/M02 Q1025

czas: 15:00 (13:00 UTC)

Prognoza

Raport powstał 1 godzina i 30 minut temu, godzina 11:30 UTC
Prognoza ważna od 26 godzina 12 UTC do 27 godzina 12 UTC
Wiatr 4 kt z kierunków zmiennych
Widzialność 10 km lub więcej
Brak chmur poniżej 1500 m i brak chmur cumulonimbus
Stopniowe zmiany
od 27 godzina 03 UTC do 27 godzina 05 UTC
Wiatr 10 kt od zachód
Przejściowo
od 27 godzina 08 UTC do 27 godzina 12 UTC
Wiatr 15 kt od zachodnio-północny zachód w porywach dochodzący do 25 kt

TAF: EPLL 261130Z 2612/2712 VRB04KT CAVOK BECMG 2703/2705 27010KT TEMPO 2708/2712 29015G25KT

Obserwacja i prognoza pogody dla ponad 4000 lotnisk (raport METAR i TAF).

Dostępne stacje oznaczono żółtymi i czerwonymi punktami na mapie.

Najedź kursorem aby zobaczyć nazwę stacji.

Kliknij aby zobaczyć obserwacje i prognozy pogody.

Aby zmienić mapę: kliknij na zielony przycisk z czarnym krzyżykiem, aby powiększyć; na zielony przycisk z myślnikiem, aby pomniejszyć; na zielone strzałki, aby przejść do map sąsiednich.


METAR-TAF: